Time;durP1;ratioP1;P1;durP2;ratioP2;P2;SDS_P1;SDS_P2;PMS_P1;PMS_P2;Temp;Humidity;BMP_temperature;BMP_pressure;BME280_temperature;BME280_humidity;BME280_pressure;Samples;Min_cycle;Max_cycle;Signal;HPM_P1;HPM_P2
2021/08/16 00:00:23;;;;;;;3.70;3.27;;;;;;;23.11;98.81;97093.75;4976330;28;20238;-66
2021/08/16 00:02:49;;;;;;;3.77;3.27;;;;;;;23.11;98.93;97092.03;4976405;28;20616;-66
2021/08/16 00:05:16;;;;;;;3.50;2.70;;;;;;;23.10;99.20;97085.22;4976437;28;20660;-65
2021/08/16 00:07:43;;;;;;;3.97;3.30;;;;;;;22.97;98.95;97056.75;4982093;28;20238;-66
2021/08/16 00:10:11;;;;;;;3.77;3.10;;;;;;;22.81;98.74;97029.16;4996197;28;20236;-65
2021/08/16 00:12:37;;;;;;;4.37;2.97;;;;;;;23.08;98.90;97071.50;4981543;28;20758;-66
2021/08/16 00:15:06;;;;;;;4.10;2.90;;;;;;;23.08;98.98;97068.06;4973324;28;20203;-66
2021/08/16 00:17:32;;;;;;;3.30;2.90;;;;;;;23.07;99.23;97063.78;4977671;28;20215;-66
2021/08/16 00:19:59;;;;;;;5.63;3.20;;;;;;;23.01;98.88;97049.16;4996190;28;20293;-66
2021/08/16 00:22:26;;;;;;;4.47;3.10;;;;;;;23.07;99.08;97061.22;4980879;28;20250;-64
2021/08/16 00:24:52;;;;;;;3.60;3.30;;;;;;;23.06;99.32;97059.47;4985220;28;20211;-66
2021/08/16 00:27:19;;;;;;;3.70;3.13;;;;;;;22.99;99.18;97047.41;4980490;28;20270;-66
2021/08/16 00:29:45;;;;;;;3.30;2.97;;;;;;;23.07;99.20;97051.81;4981180;28;20556;-65
2021/08/16 00:32:12;;;;;;;3.87;2.90;;;;;;;23.06;99.19;97044.97;4976462;28;20235;-66
2021/08/16 00:34:39;;;;;;;3.50;3.17;;;;;;;23.05;99.10;97033.00;4982024;28;20343;-64
2021/08/16 00:37:05;;;;;;;5.83;3.17;;;;;;;23.08;99.64;97034.72;4980438;28;20515;-66
2021/08/16 00:39:32;;;;;;;5.07;3.30;;;;;;;22.99;99.13;97020.09;4986544;28;20625;-65
2021/08/16 00:41:58;;;;;;;3.37;3.00;;;;;;;23.07;99.21;97026.16;4968931;28;20723;-67
2021/08/16 00:44:25;;;;;;;4.07;3.10;;;;;;;23.05;99.16;97019.31;4976011;28;20222;-66
2021/08/16 00:46:52;;;;;;;3.73;3.10;;;;;;;23.08;98.97;97030.47;4977218;28;20617;-65
2021/08/16 00:49:18;;;;;;;3.07;2.70;;;;;;;23.08;99.41;97027.03;4951471;28;20266;-66
2021/08/16 00:51:45;;;;;;;3.10;2.80;;;;;;;23.05;99.23;97015.06;4988087;28;20317;-66
2021/08/16 00:54:12;;;;;;;3.87;3.10;;;;;;;23.09;99.03;97019.38;4976832;28;20743;-66
2021/08/16 00:56:39;;;;;;;3.60;3.03;;;;;;;23.09;99.17;97027.06;4951944;28;20290;-66
2021/08/16 00:59:08;;;;;;;3.33;3.03;;;;;;;23.06;99.08;97032.16;4974560;28;20207;-66
2021/08/16 01:01:35;;;;;;;3.57;2.73;;;;;;;23.09;99.13;97029.63;4976282;28;20243;-63
2021/08/16 01:04:01;;;;;;;4.63;3.17;;;;;;;23.08;98.99;97033.03;4981715;28;20602;-66
2021/08/16 01:06:28;;;;;;;3.27;2.97;;;;;;;23.00;99.16;97020.94;4990154;28;20238;-63
2021/08/16 01:08:55;;;;;;;5.03;2.77;;;;;;;23.10;98.72;97025.38;4980882;28;20285;-66
2021/08/16 01:11:21;;;;;;;3.47;2.90;;;;;;;22.86;98.94;96981.44;4994481;28;20403;-66
2021/08/16 01:13:48;;;;;;;3.10;2.80;;;;;;;23.10;99.04;97025.38;4971146;28;20219;-65
2021/08/16 01:16:16;;;;;;;3.53;2.63;;;;;;;23.10;99.08;97028.81;4986471;28;20293;-65
2021/08/16 01:18:43;;;;;;;3.17;2.80;;;;;;;23.01;98.79;97005.56;4984738;28;20754;-65
2021/08/16 01:21:10;;;;;;;3.20;2.87;;;;;;;23.10;99.07;97023.69;4995994;28;20294;-65
2021/08/16 01:23:40;;;;;;;3.40;3.00;;;;;;;23.10;98.81;97021.13;4987387;28;20244;-64
2021/08/16 01:26:07;;;;;;;4.17;3.07;;;;;;;23.11;99.00;97014.28;4977019;28;20243;-63
2021/08/16 01:28:34;;;;;;;3.23;2.93;;;;;;;23.01;99.01;97004.72;4980036;28;20207;-65
2021/08/16 01:31:02;;;;;;;6.50;3.10;;;;;;;23.06;98.90;97021.91;4977258;28;20238;-65
2021/08/16 01:33:29;;;;;;;3.07;2.57;;;;;;;23.08;98.80;97020.22;4980988;28;20278;-63
2021/08/16 01:35:55;;;;;;;5.07;3.00;;;;;;;23.11;98.67;97015.16;4980437;28;20734;-66
2021/08/16 01:38:25;;;;;;;3.93;2.60;;;;;;;22.98;98.84;97009.81;4992919;28;20291;-65
2021/08/16 01:40:52;;;;;;;2.77;2.57;;;;;;;23.02;98.82;97017.56;4978985;28;20754;-66
2021/08/16 01:43:19;;;;;;;5.60;2.90;;;;;;;23.12;98.93;97033.97;4968612;28;20347;-62
2021/08/16 01:45:45;;;;;;;3.00;2.70;;;;;;;23.02;98.80;97007.31;4980010;28;20242;-66
2021/08/16 01:48:13;;;;;;;3.17;2.87;;;;;;;23.11;98.79;97025.41;4979863;28;20249;-66
2021/08/16 01:50:40;;;;;;;4.50;2.70;;;;;;;23.10;98.71;97023.69;4976188;28;20265;-63
2021/08/16 01:53:07;;;;;;;3.10;2.80;;;;;;;23.07;99.22;97026.16;4997358;28;20305;-65
2021/08/16 01:55:33;;;;;;;3.37;3.07;;;;;;;23.12;98.73;97023.72;4980153;28;20245;-65
2021/08/16 01:58:00;;;;;;;3.10;2.80;;;;;;;23.11;98.83;97020.28;4978388;28;20286;-64
2021/08/16 02:00:27;;;;;;;3.53;2.73;;;;;;;22.97;98.79;96998.69;4978189;28;20230;-65
2021/08/16 02:02:53;;;;;;;3.10;2.70;;;;;;;23.12;98.84;97026.28;4970526;28;20226;-65
2021/08/16 02:05:20;;;;;;;3.20;2.90;;;;;;;23.11;98.89;97015.16;4986042;28;20209;-63
2021/08/16 02:07:47;;;;;;;3.53;3.23;;;;;;;23.11;98.83;97014.28;4977941;28;20246;-66
2021/08/16 02:10:14;;;;;;;4.10;2.80;;;;;;;23.08;98.72;97012.53;4982549;28;20261;-66
2021/08/16 02:12:41;;;;;;;3.40;2.70;;;;;;;23.11;98.49;97019.41;4984541;28;20789;-67
2021/08/16 02:15:09;;;;;;;2.90;2.70;;;;;;;22.77;98.65;96961.63;4984760;28;20689;-66
2021/08/16 02:17:36;;;;;;;3.70;2.80;;;;;;;23.08;98.40;97021.91;4972834;28;20207;-66
2021/08/16 02:20:05;;;;;;;3.37;2.80;;;;;;;23.07;98.90;97020.22;4977032;28;20835;-63
2021/08/16 02:22:31;;;;;;;2.70;2.33;;;;;;;23.06;98.89;97019.34;4982134;28;20235;-67
2021/08/16 02:24:58;;;;;;;4.13;2.67;;;;;;;22.73;98.93;96959.88;4983263;28;20210;-66
2021/08/16 02:27:24;;;;;;;3.00;2.70;;;;;;;23.06;98.68;97010.78;4980325;28;20227;-64
2021/08/16 02:29:51;;;;;;;2.70;2.50;;;;;;;23.05;99.28;97015.06;4956392;28;20231;-66
2021/08/16 02:32:17;;;;;;;2.77;2.57;;;;;;;23.06;99.13;97006.50;4976094;28;20286;-67
2021/08/16 02:34:44;;;;;;;3.90;2.83;;;;;;;22.98;99.06;96986.75;4984411;28;20640;-67
2021/08/16 02:37:11;;;;;;;3.07;2.50;;;;;;;22.82;99.19;96965.13;4978991;28;20243;-66
2021/08/16 02:39:37;;;;;;;2.77;2.50;;;;;;;23.07;99.04;96997.97;4978056;28;20265;-66
2021/08/16 02:42:04;;;;;;;3.17;2.87;;;;;;;23.07;99.15;96992.00;4974555;28;20581;-67
2021/08/16 02:44:30;;;;;;;3.33;2.70;;;;;;;23.06;99.30;97003.94;4976601;28;20314;-65
2021/08/16 02:46:59;;;;;;;2.80;2.60;;;;;;;23.07;99.13;96999.69;4977378;28;20662;-67
2021/08/16 02:49:25;;;;;;;3.17;2.73;;;;;;;23.07;98.92;96989.44;4975639;28;20207;-67
2021/08/16 02:51:52;;;;;;;7.03;3.10;;;;;;;22.98;98.95;96976.50;4985361;28;20228;-66
2021/08/16 02:54:19;;;;;;;3.17;2.80;;;;;;;22.77;98.96;96941.13;4973619;28;20306;-66
2021/08/16 02:56:45;;;;;;;2.53;2.33;;;;;;;23.00;99.09;96979.91;4982554;28;20285;-66
2021/08/16 02:59:12;;;;;;;3.33;2.77;;;;;;;23.09;99.03;96998.00;4956494;28;20467;-64
2021/08/16 03:01:38;;;;;;;2.90;2.60;;;;;;;23.08;98.79;96993.72;4977251;28;20250;-63
2021/08/16 03:04:05;;;;;;;3.60;2.90;;;;;;;23.04;99.14;96992.81;4985593;28;20226;-66
2021/08/16 03:06:32;;;;;;;3.27;2.70;;;;;;;23.08;99.13;96999.72;4979336;28;20325;-67
2021/08/16 03:08:58;;;;;;;3.07;2.80;;;;;;;23.08;98.99;97004.84;4985890;28;20238;-66
2021/08/16 03:11:26;;;;;;;3.20;2.90;;;;;;;23.09;98.90;97008.25;4986267;28;20325;-66
2021/08/16 03:13:53;;;;;;;4.47;3.07;;;;;;;23.05;98.98;97002.25;4984050;28;20352;-67
2021/08/16 03:16:20;;;;;;;3.17;2.87;;;;;;;23.09;99.04;96993.75;4987718;28;20253;-67
2021/08/16 03:18:47;;;;;;;3.00;2.70;;;;;;;23.09;99.13;96990.31;4988357;28;20264;-66
2021/08/16 03:21:14;;;;;;;2.70;2.50;;;;;;;23.09;98.78;96995.44;4980829;28;20297;-66
2021/08/16 03:23:41;;;;;;;2.73;2.53;;;;;;;23.10;98.87;97004.88;4989033;28;20329;-65
2021/08/16 03:26:07;;;;;;;3.13;2.50;;;;;;;23.09;98.78;97006.56;4989064;28;20202;-65
2021/08/16 03:28:34;;;;;;;3.77;2.60;;;;;;;23.10;98.51;97002.31;4977416;28;20243;-67
2021/08/16 03:31:00;;;;;;;4.20;2.80;;;;;;;23.02;98.86;96984.25;4976346;28;20249;-66
2021/08/16 03:33:27;;;;;;;2.70;2.50;;;;;;;23.10;98.86;97004.88;4983317;28;20222;-65
2021/08/16 03:35:54;;;;;;;2.97;2.67;;;;;;;23.10;99.12;97004.88;4994477;28;20576;-67
2021/08/16 03:38:20;;;;;;;3.10;2.80;;;;;;;22.80;98.52;96951.44;4981290;28;20298;-66
2021/08/16 03:40:47;;;;;;;2.73;2.53;;;;;;;23.11;98.93;97012.59;4976280;28;20326;-66
2021/08/16 03:43:13;;;;;;;2.47;2.27;;;;;;;23.10;98.74;97000.63;4979943;28;20317;-66
2021/08/16 03:45:40;;;;;;;3.67;2.60;;;;;;;23.02;98.97;96978.25;4978832;28;20294;-63
2021/08/16 03:48:07;;;;;;;2.57;2.33;;;;;;;22.94;98.70;96967.00;4985263;28;20634;-66
2021/08/16 03:50:33;;;;;;;2.60;2.40;;;;;;;23.11;98.65;97004.03;4982404;28;20234;-67
2021/08/16 03:53:00;;;;;;;3.00;2.70;;;;;;;23.10;98.40;97010.88;4985944;28;20253;-67
2021/08/16 03:55:26;;;;;;;3.17;2.87;;;;;;;23.10;98.85;97005.75;4988404;28;20582;-67
2021/08/16 03:57:53;;;;;;;4.30;2.73;;;;;;;23.11;99.11;97001.47;4981107;28;20258;-66
2021/08/16 04:00:20;;;;;;;3.20;2.63;;;;;;;23.11;98.68;97004.91;4980502;28;20250;-66
2021/08/16 04:02:47;;;;;;;3.10;2.80;;;;;;;22.89;98.43;96938.75;4990233;28;20699;-66
2021/08/16 04:05:14;;;;;;;3.00;2.70;;;;;;;22.80;98.63;96925.81;4968079;28;20210;-67
2021/08/16 04:07:42;;;;;;;3.60;2.53;;;;;;;22.99;98.64;96956.03;4969505;28;20301;-63
2021/08/16 04:10:12;;;;;;;2.77;2.53;;;;;;;23.11;98.83;96986.94;4984625;28;20234;-66
2021/08/16 04:12:39;;;;;;;3.00;2.40;;;;;;;23.11;98.73;96992.06;4983933;28;20227;-66
2021/08/16 04:15:11;;;;;;;3.20;2.50;;;;;;;23.03;98.69;96973.16;4988546;28;20258;-66
2021/08/16 04:17:38;;;;;;;2.97;2.70;;;;;;;23.10;98.60;96967.28;4958827;28;20212;-63
2021/08/16 04:20:05;;;;;;;2.63;2.43;;;;;;;23.10;98.48;96963.84;4989843;28;20230;-66
2021/08/16 04:22:32;;;;;;;2.87;2.47;;;;;;;22.96;98.66;96938.03;4987618;28;20725;-67
2021/08/16 04:24:59;;;;;;;3.07;2.50;;;;;;;23.08;98.70;96952.72;4970714;28;20298;-67
2021/08/16 04:27:26;;;;;;;2.60;2.40;;;;;;;23.05;98.92;96953.53;4986169;28;20697;-66
2021/08/16 04:29:52;;;;;;;2.30;2.10;;;;;;;23.06;98.86;96954.38;4972490;28;20234;-66
2021/08/16 04:32:19;;;;;;;3.77;2.40;;;;;;;23.06;98.75;96939.00;4985115;28;20289;-66
2021/08/16 04:34:45;;;;;;;5.10;2.80;;;;;;;23.06;99.13;96937.31;4987878;28;20199;-67
2021/08/16 04:37:12;;;;;;;2.60;2.40;;;;;;;22.93;99.12;96925.19;4987974;28;20245;-66
2021/08/16 04:39:39;;;;;;;2.53;2.33;;;;;;;23.04;99.09;96941.53;4988538;28;20234;-65
2021/08/16 04:42:05;;;;;;;2.63;2.43;;;;;;;23.06;99.06;96952.69;4988449;28;20235;-65
2021/08/16 04:44:32;;;;;;;3.27;2.30;;;;;;;22.98;98.78;96951.72;4987059;28;20600;-65
2021/08/16 04:46:58;;;;;;;2.67;2.47;;;;;;;22.97;99.25;96950.00;4971815;28;20302;-65
2021/08/16 04:49:25;;;;;;;3.47;2.80;;;;;;;23.07;99.14;96971.50;4986328;28;20297;-66
2021/08/16 04:51:51;;;;;;;3.10;2.80;;;;;;;22.98;99.41;96953.44;4981939;28;20247;-66
2021/08/16 04:54:18;;;;;;;2.80;2.50;;;;;;;23.07;99.38;96966.38;4982849;28;20221;-66
2021/08/16 04:56:45;;;;;;;4.17;2.67;;;;;;;23.08;99.32;96968.09;4969649;28;20246;-65
2021/08/16 04:59:11;;;;;;;4.77;2.70;;;;;;;22.99;99.24;96966.25;4974509;28;20579;-65
2021/08/16 05:01:38;;;;;;;2.60;2.40;;;;;;;23.08;99.23;96994.59;4975210;28;20315;-65
2021/08/16 05:04:05;;;;;;;2.93;2.73;;;;;;;23.07;99.22;97008.22;4974216;28;20611;-66
2021/08/16 05:06:32;;;;;;;4.40;2.80;;;;;;;23.04;99.36;96999.66;4973293;28;20864;-64
2021/08/16 05:09:01;;;;;;;2.93;2.70;;;;;;;23.00;99.44;96983.34;4973349;28;20203;-66
2021/08/16 05:11:27;;;;;;;3.10;2.80;;;;;;;23.02;99.60;96985.94;4972773;28;20227;-65
2021/08/16 05:13:54;;;;;;;6.70;3.10;;;;;;;23.01;99.50;96986.78;4973136;28;20309;-66
2021/08/16 05:16:23;;;;;;;5.73;3.13;;;;;;;23.05;99.53;97009.94;4973017;28;20204;-65
2021/08/16 05:18:50;;;;;;;2.90;2.70;;;;;;;23.11;99.56;97009.16;4975007;28;20215;-65
2021/08/16 05:21:17;;;;;;;5.37;2.83;;;;;;;23.01;99.55;97007.28;4962343;28;20231;-65
2021/08/16 05:23:43;;;;;;;3.27;2.97;;;;;;;23.03;99.85;97011.59;4961760;28;20227;-66
2021/08/16 05:26:10;;;;;;;3.20;2.90;;;;;;;23.11;99.39;97030.53;4961334;28;20346;-67
2021/08/16 05:28:37;;;;;;;6.20;2.97;;;;;;;23.11;99.39;97030.53;4972705;28;20235;-67
2021/08/16 05:31:03;;;;;;;5.33;3.00;;;;;;;23.07;99.50;97023.59;4975378;28;20207;-70
2021/08/16 05:33:30;;;;;;;4.73;2.73;;;;;;;23.12;99.39;97031.41;4976189;28;20243;-64
2021/08/16 05:35:57;;;;;;;3.43;2.77;;;;;;;23.04;99.53;97018.44;4975041;28;20248;-69
2021/08/16 05:38:23;;;;;;;3.80;2.80;;;;;;;23.13;99.48;97040.81;4973267;28;20707;-68
2021/08/16 05:40:50;;;;;;;3.97;3.00;;;;;;;22.85;99.61;96982.25;4974132;28;20235;-69
2021/08/16 05:43:16;;;;;;;3.47;3.00;;;;;;;23.05;99.10;97027.00;4973134;28;20282;-68
2021/08/16 05:45:43;;;;;;;4.73;3.00;;;;;;;23.15;99.42;97041.69;4972774;28;20260;-67
2021/08/16 05:48:10;;;;;;;4.73;3.00;;;;;;;23.05;99.41;97030.44;4983433;28;20239;-67
2021/08/16 05:50:36;;;;;;;5.10;2.97;;;;;;;22.13;99.29;96876.06;4971316;28;20755;-71
2021/08/16 05:53:03;;;;;;;2.83;2.50;;;;;;;23.15;99.58;97064.78;4976388;28;20659;-69
2021/08/16 05:55:29;;;;;;;5.77;3.10;;;;;;;22.88;99.45;97041.22;4970800;28;20294;-68
2021/08/16 05:57:56;;;;;;;3.53;2.87;;;;;;;23.15;99.41;97093.81;4976694;28;20289;-70
2021/08/16 06:00:23;;;;;;;3.97;2.40;;;;;;;23.16;99.47;97080.19;4976692;28;20295;-68
2021/08/16 06:02:49;;;;;;;4.33;2.90;;;;;;;23.08;99.28;97089.44;4979765;28;20304;-69
2021/08/16 06:05:16;;;;;;;3.40;3.10;;;;;;;23.17;99.09;97114.34;4985487;28;20251;-68
2021/08/16 06:07:43;;;;;;;3.63;3.03;;;;;;;23.16;99.54;97085.31;4982613;28;20207;-68
2021/08/16 06:10:10;;;;;;;4.00;3.20;;;;;;;23.17;99.46;97089.59;4989120;28;20344;-70
2021/08/16 06:12:36;;;;;;;3.80;2.80;;;;;;;23.08;99.47;97075.75;4983094;28;20679;-68
2021/08/16 06:15:04;;;;;;;4.63;3.10;;;;;;;23.13;99.37;97089.50;4980844;28;20238;-73
2021/08/16 06:17:31;;;;;;;3.40;3.10;;;;;;;23.17;98.96;97083.59;4983254;28;20248;-69
2021/08/16 06:19:57;;;;;;;3.97;2.93;;;;;;;23.18;99.43;97087.88;4980649;28;20286;-69
2021/08/16 06:22:24;;;;;;;4.47;2.87;;;;;;;23.17;99.30;97081.88;4986880;28;20234;-68
2021/08/16 06:24:50;;;;;;;5.67;3.43;;;;;;;23.18;99.39;97090.47;4988034;28;20631;-74
2021/08/16 06:27:17;;;;;;;4.00;2.90;;;;;;;23.16;99.49;97084.44;4983732;28;20285;-67
2021/08/16 06:29:44;;;;;;;5.40;3.03;;;;;;;23.15;99.24;97090.41;4981010;28;20621;-68
2021/08/16 06:32:11;;;;;;;4.97;3.13;;;;;;;23.16;99.38;97094.69;4983445;28;20294;-73
2021/08/16 06:34:41;;;;;;;7.87;3.30;;;;;;;23.16;99.83;97093.00;4983524;28;20226;-69
2021/08/16 06:37:08;;;;;;;4.30;3.37;;;;;;;23.08;99.24;97074.06;4978921;28;20204;-70
2021/08/16 06:39:34;;;;;;;3.40;3.10;;;;;;;23.15;99.65;97087.84;4983873;28;20208;-69
2021/08/16 06:42:01;;;;;;;5.60;3.67;;;;;;;23.12;99.68;97082.66;4981261;28;20257;-70
2021/08/16 06:44:27;;;;;;;5.80;3.40;;;;;;;23.04;99.70;97068.84;4979607;28;20317;-71
2021/08/16 06:46:54;;;;;;;3.97;3.40;;;;;;;23.16;99.91;97084.44;4981395;28;20318;-69
2021/08/16 06:49:21;;;;;;;3.27;2.97;;;;;;;23.15;99.76;97096.38;4986892;28;20314;-65
2021/08/16 06:51:48;;;;;;;4.53;3.70;;;;;;;23.15;99.70;97087.84;4984976;28;20668;-73
2021/08/16 06:54:15;;;;;;;6.00;3.57;;;;;;;23.07;99.83;97087.69;4987515;28;20690;-72
2021/08/16 06:56:56;;;;;;;4.17;3.33;;;;;;;23.05;99.62;97083.38;4979710;28;20210;-68
2021/08/16 06:59:23;;;;;;;4.63;3.80;;;;;;;23.14;99.75;97097.22;4988159;28;20302;-70
2021/08/16 07:01:49;;;;;;;5.13;3.80;;;;;;;23.10;99.69;97092.91;4981502;28;20758;-72
2021/08/16 07:04:18;;;;;;;5.13;3.80;;;;;;;23.16;99.61;97102.38;4982859;28;20307;-73
2021/08/16 07:06:46;;;;;;;4.27;3.90;;;;;;;23.16;99.71;97102.38;4983133;28;20660;-69
2021/08/16 07:09:13;;;;;;;4.40;3.60;;;;;;;23.15;99.53;97114.31;4983755;28;20207;-70
2021/08/16 07:11:39;;;;;;;5.23;3.83;;;;;;;23.15;99.67;97103.22;4979274;28;20211;-73
2021/08/16 07:14:06;;;;;;;6.43;3.93;;;;;;;23.08;99.79;97093.69;4983962;28;20356;-68
2021/08/16 07:16:33;;;;;;;4.07;3.63;;;;;;;23.14;99.56;97107.47;4971448;28;20216;-72
2021/08/16 07:18:59;;;;;;;5.43;4.30;;;;;;;23.08;99.66;97098.81;4981037;28;20203;-71
2021/08/16 07:21:26;;;;;;;5.03;4.00;;;;;;;23.09;99.61;97105.66;4982935;28;20246;-70
2021/08/16 07:23:53;;;;;;;4.03;3.63;;;;;;;23.16;99.82;97116.06;4979655;28;20321;-66
2021/08/16 07:26:19;;;;;;;4.00;3.40;;;;;;;23.17;99.70;97117.78;4979598;28;20558;-67
2021/08/16 07:28:46;;;;;;;5.30;3.90;;;;;;;23.17;99.70;97109.22;4982526;28;20294;-71
2021/08/16 07:31:13;;;;;;;7.57;4.30;;;;;;;23.07;99.58;97091.97;4978157;28;20318;-69
2021/08/16 07:33:40;;;;;;;4.37;3.70;;;;;;;22.86;99.79;97059.13;4966247;28;20674;-70
2021/08/16 07:36:07;;;;;;;7.23;3.90;;;;;;;23.10;100.00;97104.84;4979068;28;20211;-68
2021/08/16 07:38:34;;;;;;;5.90;4.07;;;;;;;23.17;99.86;97111.78;4979312;28;20890;-70
2021/08/16 07:41:00;;;;;;;6.37;4.03;;;;;;;23.03;99.89;97095.31;4978504;28;20726;-68
2021/08/16 07:43:27;;;;;;;4.50;3.40;;;;;;;23.16;99.80;97110.94;4980743;28;20313;-73
2021/08/16 07:45:54;;;;;;;6.53;3.77;;;;;;;23.06;99.98;97091.09;4982115;28;20726;-66
2021/08/16 07:48:20;;;;;;;5.23;4.00;;;;;;;23.17;99.89;97101.53;4981720;28;20724;-69
2021/08/16 07:50:47;;;;;;;4.17;3.77;;;;;;;23.04;99.89;97085.06;4980159;28;20297;-71
2021/08/16 07:53:13;;;;;;;3.97;3.60;;;;;;;23.16;99.84;97108.38;4977963;28;20619;-71
2021/08/16 07:55:41;;;;;;;6.40;3.80;;;;;;;23.08;99.88;97096.25;4981491;28;20199;-68
2021/08/16 07:58:07;;;;;;;7.13;4.10;;;;;;;23.17;99.88;97133.16;4981911;28;20234;-71
2021/08/16 08:00:34;;;;;;;5.10;4.23;;;;;;;23.18;99.99;97128.91;4980219;28;20523;-68
2021/08/16 08:03:01;;;;;;;4.33;3.93;;;;;;;23.17;99.98;97130.59;4983243;28;20345;-69
2021/08/16 08:05:27;;;;;;;5.27;3.80;;;;;;;23.17;99.93;97133.16;4986331;28;20256;-68
2021/08/16 08:07:54;;;;;;;5.27;3.80;;;;;;;23.13;100.00;97116.00;4983988;28;20683;-71
2021/08/16 08:10:22;;;;;;;4.50;3.50;;;;;;;23.10;100.00;97107.41;4985211;28;20671;-70
2021/08/16 08:12:49;;;;;;;6.63;3.90;;;;;;;23.18;100.00;97116.09;4979339;28;20229;-72
2021/08/16 08:15:16;;;;;;;5.07;3.77;;;;;;;23.17;100.00;97120.34;4984992;28;20254;-69
2021/08/16 08:17:43;;;;;;;4.30;3.57;;;;;;;23.18;100.00;97132.31;4982573;28;20215;-71
2021/08/16 08:20:09;;;;;;;4.47;3.47;;;;;;;23.14;100.00;97129.69;4988023;28;20210;-70
2021/08/16 08:22:36;;;;;;;4.53;3.90;;;;;;;23.19;100.00;97128.06;4982408;28;20241;-71
2021/08/16 08:25:03;;;;;;;4.30;3.50;;;;;;;23.19;100.00;97128.06;4987915;28;20336;-71
2021/08/16 08:27:30;;;;;;;4.13;3.17;;;;;;;22.88;100.00;97082.22;4985289;28;20217;-69
2021/08/16 08:29:56;;;;;;;4.50;3.57;;;;;;;23.19;100.00;97148.56;4971183;28;20694;-70
2021/08/16 08:32:23;;;;;;;5.20;3.73;;;;;;;23.19;100.00;97141.75;4984219;28;20640;-69
2021/08/16 08:34:50;;;;;;;5.10;3.70;;;;;;;23.19;100.00;97148.56;4984525;28;20707;-70
2021/08/16 08:37:16;;;;;;;3.97;3.53;;;;;;;23.14;100.00;97130.56;4973215;28;20338;-70
2021/08/16 08:39:43;;;;;;;4.07;3.67;;;;;;;23.10;100.00;97140.72;4978515;28;20239;-70
2021/08/16 08:42:11;;;;;;;4.87;3.90;;;;;;;22.87;100.00;97096.75;4962912;28;20246;-71
2021/08/16 08:44:39;;;;;;;3.73;3.33;;;;;;;23.19;100.00;97163.94;4981781;28;20346;-72
2021/08/16 08:47:06;;;;;;;4.23;3.83;;;;;;;22.90;100.00;97114.75;4982709;28;20246;-70
2021/08/16 08:49:33;;;;;;;3.70;3.40;;;;;;;23.19;100.00;97158.81;4958077;28;20652;-73
2021/08/16 08:52:00;;;;;;;3.53;3.23;;;;;;;23.18;100.00;97155.38;4978686;28;20218;-71
2021/08/16 08:54:27;;;;;;;4.17;3.27;;;;;;;23.18;100.00;97154.53;4977002;28;20299;-68
2021/08/16 08:57:17;;;;;;;3.67;3.27;;;;;;;23.06;100.00;97137.22;4973308;28;20208;-68
2021/08/16 08:59:44;;;;;;;3.80;3.40;;;;;;;23.18;100.00;97152.81;4966871;28;20234;-68
2021/08/16 09:02:14;;;;;;;4.43;3.30;;;;;;;23.17;100.00;97148.53;4982290;28;20213;-68
2021/08/16 09:04:54;;;;;;;3.33;3.00;;;;;;;22.84;100.00;97083.03;4977326;28;20255;-68
2021/08/16 09:07:34;;;;;;;3.97;3.43;;;;;;;23.19;100.00;97139.19;4970533;28;20257;-68
2021/08/16 09:10:01;;;;;;;9.27;3.47;;;;;;;23.16;100.00;97143.38;4979488;28;20731;-68
2021/08/16 09:12:37;;;;;;;4.10;3.70;;;;;;;23.19;100.00;97146.00;4980644;28;20272;-68
2021/08/16 09:15:15;;;;;;;6.57;3.13;;;;;;;23.21;100.00;97149.47;4982152;28;20195;-69
2021/08/16 09:17:42;;;;;;;4.37;3.60;;;;;;;23.20;100.00;97142.59;4971020;28;20211;-72
2021/08/16 09:20:15;;;;;;;5.53;3.83;;;;;;;23.21;100.00;97150.31;4952006;28;20297;-72
2021/08/16 09:22:41;;;;;;;3.70;3.23;;;;;;;23.13;100.00;97127.97;4964314;28;20249;-70
2021/08/16 09:25:10;;;;;;;3.60;3.30;;;;;;;22.89;100.00;97097.63;4964792;28;20227;-72
2021/08/16 09:27:45;;;;;;;3.80;3.30;;;;;;;23.12;100.00;97129.66;4963702;28;20247;-71
2021/08/16 09:30:13;;;;;;;4.63;3.23;;;;;;;23.13;100.00;97127.97;4966958;28;20210;-71
2021/08/16 09:32:40;;;;;;;3.90;3.37;;;;;;;23.14;100.00;97135.66;4962217;28;20319;-70
2021/08/16 09:35:09;;;;;;;7.70;3.53;;;;;;;23.23;100.00;97150.34;4964302;28;20289;-73
2021/08/16 09:37:35;;;;;;;6.67;3.20;;;;;;;23.23;100.00;97151.22;4964415;28;20293;-68
2021/08/16 09:40:14;;;;;;;4.57;3.40;;;;;;;22.95;100.00;97096.91;4963892;28;20701;-72
2021/08/16 09:42:51;;;;;;;7.83;3.57;;;;;;;23.24;100.00;97142.69;4962032;28;20226;-69
2021/08/16 09:45:28;;;;;;;4.13;3.60;;;;;;;23.25;100.00;97147.00;4966332;28;20779;-73
2021/08/16 09:47:58;;;;;;;4.93;3.30;;;;;;;23.22;100.00;97143.50;4964863;28;20842;-67
2021/08/16 09:50:37;;;;;;;3.93;3.53;;;;;;;23.23;100.00;97145.22;4946181;28;20326;-71
2021/08/16 09:53:06;;;;;;;4.40;3.30;;;;;;;23.28;100.00;97151.31;4963594;28;20317;-71
2021/08/16 09:55:35;;;;;;;4.83;3.30;;;;;;;23.20;100.00;97129.78;4965624;28;20206;-72
2021/08/16 09:58:03;;;;;;;6.47;3.13;;;;;;;23.30;100.00;97149.66;4947096;28;20768;-71
2021/08/16 10:00:30;;;;;;;4.30;3.30;;;;;;;23.30;100.00;97144.53;4963196;28;20264;-71
2021/08/16 10:02:57;;;;;;;4.80;3.70;;;;;;;23.05;100.00;97098.75;4966581;28;20238;-69
2021/08/16 10:05:24;;;;;;;6.50;3.60;;;;;;;23.31;100.00;97148.81;4967006;28;20234;-71
2021/08/16 10:07:52;;;;;;;5.63;3.83;;;;;;;23.25;100.00;97121.38;4967448;28;20218;-68
2021/08/16 10:10:19;;;;;;;3.40;3.10;;;;;;;23.29;100.00;97122.25;4947460;28;20679;-70
2021/08/16 10:12:46;;;;;;;6.00;3.47;;;;;;;23.20;100.00;97099.00;4961359;28;20314;-67
2021/08/16 10:15:13;;;;;;;4.63;3.60;;;;;;;23.34;100.00;97131.78;4962415;28;20566;-69
2021/08/16 10:17:41;;;;;;;7.00;3.77;;;;;;;23.19;100.00;97121.25;4963058;28;20236;-72
2021/08/16 10:20:08;;;;;;;5.97;4.20;;;;;;;23.35;100.00;97140.31;4946833;28;20302;-73
2021/08/16 10:22:38;;;;;;;5.77;3.70;;;;;;;23.29;100.00;97140.22;4959611;28;20249;-69
2021/08/16 10:25:13;;;;;;;5.73;3.47;;;;;;;23.36;100.00;97150.59;4962205;28;20518;-72
2021/08/16 10:27:39;;;;;;;5.83;3.37;;;;;;;23.28;100.00;97147.06;4946467;28;20210;-70
2021/08/16 10:30:16;;;;;;;3.80;3.10;;;;;;;23.30;100.00;97144.53;4947112;28;20248;-69
2021/08/16 10:32:43;;;;;;;4.63;3.50;;;;;;;23.38;100.00;97157.47;4960104;28;20320;-75
2021/08/16 10:35:14;;;;;;;5.03;3.60;;;;;;;23.29;100.00;97137.66;4966394;28;20207;-73
2021/08/16 10:37:42;;;;;;;5.27;3.43;;;;;;;23.39;100.00;97152.38;4963016;28;20213;-74
2021/08/16 10:40:23;;;;;;;6.20;3.37;;;;;;;23.39;100.00;97155.78;4962274;28;20318;-71
2021/08/16 10:42:53;;;;;;;5.63;3.47;;;;;;;23.39;100.00;97149.81;4967098;28;20235;-71
2021/08/16 10:45:27;;;;;;;10.13;3.63;;;;;;;23.27;100.00;97132.50;4978483;28;20254;-68
2021/08/16 10:48:05;;;;;;;6.50;3.80;;;;;;;23.40;100.00;97146.38;4951004;28;20325;-70
2021/08/16 10:50:31;;;;;;;5.23;3.60;;;;;;;23.41;100.00;97144.69;4960663;28;20290;-71
2021/08/16 10:53:00;;;;;;;5.97;3.60;;;;;;;23.34;100.00;97130.91;4962392;28;20381;-68
2021/08/16 10:55:27;;;;;;;6.60;3.80;;;;;;;23.41;100.00;97142.97;4953033;28;20697;-69
2021/08/16 10:57:53;;;;;;;6.37;3.93;;;;;;;23.42;100.00;97139.59;4966155;28;20754;-74
2021/08/16 11:00:21;;;;;;;8.87;4.33;;;;;;;23.41;100.00;97134.44;4963021;28;20216;-73
2021/08/16 11:02:54;;;;;;;6.00;3.83;;;;;;;23.42;100.00;97134.47;4960568;28;20237;-73
2021/08/16 11:05:37;;;;;;;5.50;3.93;;;;;;;23.38;100.00;97128.41;4962327;28;20662;-71
2021/08/16 11:08:05;;;;;;;5.30;3.47;;;;;;;23.32;100.00;97102.69;4970026;28;20715;-69
2021/08/16 11:10:46;;;;;;;6.03;4.13;;;;;;;23.42;100.00;97115.63;4947386;28;20267;-74
2021/08/16 11:13:16;;;;;;;7.83;4.47;;;;;;;23.42;100.00;97116.50;4968653;28;20227;-70
2021/08/16 11:15:44;;;;;;;4.20;3.60;;;;;;;23.42;100.00;97103.69;4963976;28;20384;-70
2021/08/16 11:18:18;;;;;;;5.40;3.67;;;;;;;23.39;100.00;97103.66;4966430;28;20206;-71
2021/08/16 11:20:47;;;;;;;5.63;3.87;;;;;;;23.42;100.00;97107.09;4961991;28;20561;-74
2021/08/16 11:23:13;;;;;;;5.43;3.73;;;;;;;23.43;100.00;97115.66;4968465;28;20391;-71
2021/08/16 11:25:53;;;;;;;5.90;4.03;;;;;;;23.28;100.00;97080.41;4948866;28;20230;-68
2021/08/16 11:28:21;;;;;;;9.00;4.50;;;;;;;23.21;100.00;97070.00;4947423;28;20345;-68
2021/08/16 11:30:49;;;;;;;7.63;3.67;;;;;;;23.17;100.00;97060.50;4961152;28;20253;-70
2021/08/16 11:33:23;;;;;;;8.03;4.10;;;;;;;23.45;100.00;97108.00;4963935;28;20226;-70